Accueil
METAR-TAF:

METAR-TAF

Aéroports :

Aéroport de Gênes-Christophe Colomb

Gênes, Italie

latitude: 44-25N, longitude: 008-51E, altitude: 2 m

Observation

Le bulletin a été fait il y a 19 minutes, à 18:50 UTC
Vent 3 kt de sud/sud-ouest
Température 14°C
Humidité 77%
Pression 1012 hPa
Visibilité 10 km ou plus
Nuages fragmentés à une hauteur de 1800 ft

METAR: LIMJ 291850Z 21003KT 9999 BKN018 14/10 Q1012

Heure: 21:09 (19:09 UTC)

Prévision

Le bulletin a été fait il y a 2 heures et 9 minutes, à 17:00 UTC
Prévision valable du 29 à 18 UTC au 30 à 18 UTC
Vent 6 kt de direction variable
Visibilité 10 km ou plus
Nuages épars à une hauteur de 3000 ft
Temporairement
du 30 à 10 UTC au 30 à 18 UTC
pluie

TAF: LIMJ 291700Z 2918/3018 VRB06KT 9999 SCT030 TEMPO 3010/3018 RA

Observations et prévisions météorologiques de plus de 4000 aéroports (messages METAR et TAF).

Les stations disponibles sont représentées par des disques jaunes et rouges sur la carte.

Passer la souris dessus pour voir le nom de la station.

Cliquer dessus pour voir les observations et prévisions météorologiques.

Pour changer de carte: cliquez sur les boutons verts avec une croix noire pour zoomer, sur le bouton vert avec un tiret pour effectuer un zoom arrière, ou sur les flèches vertes pour les cartes adjacentes.


METAR-TAF: